sensor_id;sensor_type;location;lat;lon;timestamp;temperature;humidity
14317;DHT22;7242;50.858;6.586;2023-02-28T00:02:01;1.60;99.90
14317;DHT22;7242;50.858;6.586;2023-02-28T00:05:02;1.50;99.90
14317;DHT22;7242;50.858;6.586;2023-02-28T00:08:03;1.50;99.90
14317;DHT22;7242;50.858;6.586;2023-02-28T00:11:06;1.50;99.90
14317;DHT22;7242;50.858;6.586;2023-02-28T00:14:07;1.40;99.90
14317;DHT22;7242;50.858;6.586;2023-02-28T00:17:07;1.40;99.90
14317;DHT22;7242;50.858;6.586;2023-02-28T00:20:09;1.40;99.90
14317;DHT22;7242;50.858;6.586;2023-02-28T00:23:10;1.40;99.90
14317;DHT22;7242;50.858;6.586;2023-02-28T00:26:11;1.50;99.90
14317;DHT22;7242;50.858;6.586;2023-02-28T00:29:13;1.40;99.90
14317;DHT22;7242;50.858;6.586;2023-02-28T00:32:14;1.30;99.90
14317;DHT22;7242;50.858;6.586;2023-02-28T00:35:15;1.30;99.90
14317;DHT22;7242;50.858;6.586;2023-02-28T00:38:16;1.40;99.90
14317;DHT22;7242;50.858;6.586;2023-02-28T00:41:16;1.30;99.90
14317;DHT22;7242;50.858;6.586;2023-02-28T00:44:17;1.30;99.90
14317;DHT22;7242;50.858;6.586;2023-02-28T00:47:18;1.20;99.90
14317;DHT22;7242;50.858;6.586;2023-02-28T00:50:19;1.20;99.90
14317;DHT22;7242;50.858;6.586;2023-02-28T00:53:20;1.20;99.90
14317;DHT22;7242;50.858;6.586;2023-02-28T00:56:22;1.10;99.90
14317;DHT22;7242;50.858;6.586;2023-02-28T00:59:23;1.10;99.90
14317;DHT22;7242;50.858;6.586;2023-02-28T01:02:23;1.10;99.90
14317;DHT22;7242;50.858;6.586;2023-02-28T01:05:26;1.10;99.90
14317;DHT22;7242;50.858;6.586;2023-02-28T01:08:27;1.00;99.90
14317;DHT22;7242;50.858;6.586;2023-02-28T01:11:28;1.10;99.90
14317;DHT22;7242;50.858;6.586;2023-02-28T01:14:29;1.10;99.90
14317;DHT22;7242;50.858;6.586;2023-02-28T01:17:30;1.10;99.90
14317;DHT22;7242;50.858;6.586;2023-02-28T01:20:37;1.10;99.90
14317;DHT22;7242;50.858;6.586;2023-02-28T01:23:38;1.10;99.90
14317;DHT22;7242;50.858;6.586;2023-02-28T01:26:39;1.10;99.90
14317;DHT22;7242;50.858;6.586;2023-02-28T01:29:41;1.10;99.90
14317;DHT22;7242;50.858;6.586;2023-02-28T01:32:43;1.10;99.90
14317;DHT22;7242;50.858;6.586;2023-02-28T01:35:44;1.10;99.90
14317;DHT22;7242;50.858;6.586;2023-02-28T01:38:45;1.10;99.90
14317;DHT22;7242;50.858;6.586;2023-02-28T01:41:47;1.10;99.90
14317;DHT22;7242;50.858;6.586;2023-02-28T01:48:07;1.10;99.90
14317;DHT22;7242;50.858;6.586;2023-02-28T01:51:13;1.00;99.90
14317;DHT22;7242;50.858;6.586;2023-02-28T01:54:34;1.10;99.90
14317;DHT22;7242;50.858;6.586;2023-02-28T01:57:39;1.10;99.90
14317;DHT22;7242;50.858;6.586;2023-02-28T02:00:42;1.00;99.90
14317;DHT22;7242;50.858;6.586;2023-02-28T02:03:44;1.00;99.90
14317;DHT22;7242;50.858;6.586;2023-02-28T02:06:48;1.00;99.90
14317;DHT22;7242;50.858;6.586;2023-02-28T02:09:50;1.00;99.90
14317;DHT22;7242;50.858;6.586;2023-02-28T02:26:55;1.00;99.90
14317;DHT22;7242;50.858;6.586;2023-02-28T02:36:37;0.90;99.90
14317;DHT22;7242;50.858;6.586;2023-02-28T02:43:04;0.80;99.90
14317;DHT22;7242;50.858;6.586;2023-02-28T02:46:16;0.80;99.90
14317;DHT22;7242;50.858;6.586;2023-02-28T02:49:26;0.80;99.90
14317;DHT22;7242;50.858;6.586;2023-02-28T02:52:42;0.80;99.90
14317;DHT22;7242;50.858;6.586;2023-02-28T02:55:47;0.80;99.90
14317;DHT22;7242;50.858;6.586;2023-02-28T02:58:57;0.80;99.90
14317;DHT22;7242;50.858;6.586;2023-02-28T03:02:03;0.70;99.90
14317;DHT22;7242;50.858;6.586;2023-02-28T03:05:12;0.70;99.90
14317;DHT22;7242;50.858;6.586;2023-02-28T03:08:15;0.70;99.90
14317;DHT22;7242;50.858;6.586;2023-02-28T03:11:16;0.70;99.90
14317;DHT22;7242;50.858;6.586;2023-02-28T03:15:04;0.60;99.90
14317;DHT22;7242;50.858;6.586;2023-02-28T03:17:47;0.70;99.90
14317;DHT22;7242;50.858;6.586;2023-02-28T03:24:07;0.70;99.90
14317;DHT22;7242;50.858;6.586;2023-02-28T03:27:11;0.70;99.90
14317;DHT22;7242;50.858;6.586;2023-02-28T03:33:21;0.70;99.90
14317;DHT22;7242;50.858;6.586;2023-02-28T03:36:32;0.70;99.90
14317;DHT22;7242;50.858;6.586;2023-02-28T03:39:41;0.80;99.90
14317;DHT22;7242;50.858;6.586;2023-02-28T03:42:45;0.70;99.90
14317;DHT22;7242;50.858;6.586;2023-02-28T03:45:48;0.70;99.90
14317;DHT22;7242;50.858;6.586;2023-02-28T03:49:24;0.70;99.90
14317;DHT22;7242;50.858;6.586;2023-02-28T03:52:29;0.70;99.90
14317;DHT22;7242;50.858;6.586;2023-02-28T03:55:37;0.70;99.90
14317;DHT22;7242;50.858;6.586;2023-02-28T03:59:04;0.70;99.90
14317;DHT22;7242;50.858;6.586;2023-02-28T04:02:05;0.70;99.90
14317;DHT22;7242;50.858;6.586;2023-02-28T04:05:07;0.60;99.90
14317;DHT22;7242;50.858;6.586;2023-02-28T04:08:08;0.60;99.90
14317;DHT22;7242;50.858;6.586;2023-02-28T04:12:11;0.60;99.90
14317;DHT22;7242;50.858;6.586;2023-02-28T04:14:52;0.60;99.90
14317;DHT22;7242;50.858;6.586;2023-02-28T04:17:53;0.60;99.90
14317;DHT22;7242;50.858;6.586;2023-02-28T04:20:54;0.50;99.90
14317;DHT22;7242;50.858;6.586;2023-02-28T04:23:55;0.50;99.90
14317;DHT22;7242;50.858;6.586;2023-02-28T04:26:57;0.50;99.90
14317;DHT22;7242;50.858;6.586;2023-02-28T04:29:58;0.40;99.90
14317;DHT22;7242;50.858;6.586;2023-02-28T04:33:00;0.40;99.90
14317;DHT22;7242;50.858;6.586;2023-02-28T04:36:07;0.40;99.90
14317;DHT22;7242;50.858;6.586;2023-02-28T04:39:08;0.40;99.90
14317;DHT22;7242;50.858;6.586;2023-02-28T04:42:11;0.40;99.90
14317;DHT22;7242;50.858;6.586;2023-02-28T04:45:11;0.50;99.90
14317;DHT22;7242;50.858;6.586;2023-02-28T04:48:12;0.40;99.90
14317;DHT22;7242;50.858;6.586;2023-02-28T04:51:14;0.40;99.90
14317;DHT22;7242;50.858;6.586;2023-02-28T04:54:16;0.40;99.90
14317;DHT22;7242;50.858;6.586;2023-02-28T04:57:18;0.40;99.90
14317;DHT22;7242;50.858;6.586;2023-02-28T05:00:19;0.40;99.90
14317;DHT22;7242;50.858;6.586;2023-02-28T05:03:20;0.40;99.90
14317;DHT22;7242;50.858;6.586;2023-02-28T05:06:24;0.30;99.90
14317;DHT22;7242;50.858;6.586;2023-02-28T05:09:25;0.40;99.90
14317;DHT22;7242;50.858;6.586;2023-02-28T05:12:26;0.40;99.90
14317;DHT22;7242;50.858;6.586;2023-02-28T05:15:28;0.40;99.90
14317;DHT22;7242;50.858;6.586;2023-02-28T05:18:28;0.30;99.90
14317;DHT22;7242;50.858;6.586;2023-02-28T05:21:38;0.30;99.90
14317;DHT22;7242;50.858;6.586;2023-02-28T05:24:39;0.30;99.90
14317;DHT22;7242;50.858;6.586;2023-02-28T05:27:39;0.20;99.90
14317;DHT22;7242;50.858;6.586;2023-02-28T05:33:41;0.20;99.90
14317;DHT22;7242;50.858;6.586;2023-02-28T05:36:42;0.10;99.90
14317;DHT22;7242;50.858;6.586;2023-02-28T05:48:47;0.00;99.90
14317;DHT22;7242;50.858;6.586;2023-02-28T05:51:48;0.10;99.90
14317;DHT22;7242;50.858;6.586;2023-02-28T05:54:49;0.00;99.90
14317;DHT22;7242;50.858;6.586;2023-02-28T06:00:50;0.00;99.90
14317;DHT22;7242;50.858;6.586;2023-02-28T06:06:52;-0.10;99.90
14317;DHT22;7242;50.858;6.586;2023-02-28T06:09:53;-0.10;99.90
14317;DHT22;7242;50.858;6.586;2023-02-28T06:19:01;0.00;99.90
14317;DHT22;7242;50.858;6.586;2023-02-28T06:25:04;-0.20;99.90
14317;DHT22;7242;50.858;6.586;2023-02-28T06:28:05;0.00;99.90
14317;DHT22;7242;50.858;6.586;2023-02-28T06:31:11;0.00;99.90
14317;DHT22;7242;50.858;6.586;2023-02-28T06:37:14;0.10;99.90
14317;DHT22;7242;50.858;6.586;2023-02-28T06:40:15;0.00;99.90
14317;DHT22;7242;50.858;6.586;2023-02-28T06:43:15;0.10;99.90
14317;DHT22;7242;50.858;6.586;2023-02-28T06:46:16;0.10;99.90
14317;DHT22;7242;50.858;6.586;2023-02-28T06:49:17;0.20;99.90
14317;DHT22;7242;50.858;6.586;2023-02-28T06:52:18;0.60;99.90
14317;DHT22;7242;50.858;6.586;2023-02-28T06:55:18;1.70;99.90
14317;DHT22;7242;50.858;6.586;2023-02-28T07:04:25;5.50;99.90
14317;DHT22;7242;50.858;6.586;2023-02-28T07:07:26;6.40;99.90
14317;DHT22;7242;50.858;6.586;2023-02-28T07:16:28;6.60;99.90
14317;DHT22;7242;50.858;6.586;2023-02-28T07:19:29;6.10;99.90
14317;DHT22;7242;50.858;6.586;2023-02-28T07:25:31;5.10;99.90
14317;DHT22;7242;50.858;6.586;2023-02-28T07:31:33;4.10;99.90
14317;DHT22;7242;50.858;6.586;2023-02-28T07:34:33;3.80;99.90
14317;DHT22;7242;50.858;6.586;2023-02-28T07:49:41;5.20;99.90
14317;DHT22;7242;50.858;6.586;2023-02-28T07:52:42;7.00;99.90
14317;DHT22;7242;50.858;6.586;2023-02-28T08:04:46;12.40;99.90
14317;DHT22;7242;50.858;6.586;2023-02-28T08:07:49;12.70;98.70
14317;DHT22;7242;50.858;6.586;2023-02-28T08:10:50;11.40;97.40
14317;DHT22;7242;50.858;6.586;2023-02-28T08:19:52;9.00;99.90
14317;DHT22;7242;50.858;6.586;2023-02-28T08:22:53;7.70;99.90
14317;DHT22;7242;50.858;6.586;2023-02-28T08:25:55;7.10;99.90
14317;DHT22;7242;50.858;6.586;2023-02-28T08:34:59;5.70;99.90
14317;DHT22;7242;50.858;6.586;2023-02-28T08:37:59;5.30;99.90
14317;DHT22;7242;50.858;6.586;2023-02-28T08:41:02;5.00;99.90
14317;DHT22;7242;50.858;6.586;2023-02-28T08:50:06;4.30;99.90
14317;DHT22;7242;50.858;6.586;2023-02-28T08:53:07;4.20;99.90
14317;DHT22;7242;50.858;6.586;2023-02-28T08:56:10;4.10;99.90
14317;DHT22;7242;50.858;6.586;2023-02-28T09:02:14;3.90;99.90
14317;DHT22;7242;50.858;6.586;2023-02-28T09:05:14;3.70;99.90
14317;DHT22;7242;50.858;6.586;2023-02-28T09:14:18;3.50;99.90
14317;DHT22;7242;50.858;6.586;2023-02-28T09:26:25;3.60;99.90
14317;DHT22;7242;50.858;6.586;2023-02-28T09:35:28;3.60;99.90
14317;DHT22;7242;50.858;6.586;2023-02-28T09:41:39;3.50;99.90
14317;DHT22;7242;50.858;6.586;2023-02-28T09:44:48;3.50;99.90
14317;DHT22;7242;50.858;6.586;2023-02-28T09:47:53;3.50;99.90
14317;DHT22;7242;50.858;6.586;2023-02-28T09:51:03;3.60;99.90
14317;DHT22;7242;50.858;6.586;2023-02-28T09:57:19;3.60;99.90
14317;DHT22;7242;50.858;6.586;2023-02-28T10:00:33;3.80;99.90
14317;DHT22;7242;50.858;6.586;2023-02-28T10:06:49;3.80;99.90
14317;DHT22;7242;50.858;6.586;2023-02-28T10:09:54;3.90;99.90
14317;DHT22;7242;50.858;6.586;2023-02-28T10:12:58;3.90;99.90
14317;DHT22;7242;50.858;6.586;2023-02-28T10:16:08;4.00;99.90
14317;DHT22;7242;50.858;6.586;2023-02-28T10:23:13;4.00;99.90
14317;DHT22;7242;50.858;6.586;2023-02-28T10:26:17;4.00;99.90
14317;DHT22;7242;50.858;6.586;2023-02-28T10:29:18;3.90;99.90
14317;DHT22;7242;50.858;6.586;2023-02-28T10:32:21;3.80;99.90
14317;DHT22;7242;50.858;6.586;2023-02-28T10:35:25;3.90;99.90
14317;DHT22;7242;50.858;6.586;2023-02-28T10:38:35;3.90;99.90
14317;DHT22;7242;50.858;6.586;2023-02-28T10:41:42;3.90;99.90
14317;DHT22;7242;50.858;6.586;2023-02-28T10:44:43;3.90;99.90
14317;DHT22;7242;50.858;6.586;2023-02-28T10:48:00;3.80;99.90
14317;DHT22;7242;50.858;6.586;2023-02-28T10:51:02;3.90;99.90
14317;DHT22;7242;50.858;6.586;2023-02-28T10:54:04;4.00;99.90
14317;DHT22;7242;50.858;6.586;2023-02-28T10:57:11;4.10;99.90
14317;DHT22;7242;50.858;6.586;2023-02-28T11:00:18;4.30;99.90
14317;DHT22;7242;50.858;6.586;2023-02-28T11:03:28;4.40;99.90
14317;DHT22;7242;50.858;6.586;2023-02-28T11:06:33;4.50;99.90
14317;DHT22;7242;50.858;6.586;2023-02-28T11:09:38;4.50;99.90
14317;DHT22;7242;50.858;6.586;2023-02-28T11:12:40;4.60;99.90
14317;DHT22;7242;50.858;6.586;2023-02-28T11:15:54;4.60;99.90
14317;DHT22;7242;50.858;6.586;2023-02-28T11:18:55;4.70;99.90
14317;DHT22;7242;50.858;6.586;2023-02-28T11:21:59;4.80;99.90
14317;DHT22;7242;50.858;6.586;2023-02-28T11:25:03;4.70;99.90
14317;DHT22;7242;50.858;6.586;2023-02-28T11:34:30;4.70;99.90
14317;DHT22;7242;50.858;6.586;2023-02-28T11:37:32;4.70;99.90
14317;DHT22;7242;50.858;6.586;2023-02-28T11:44:33;4.80;99.90
14317;DHT22;7242;50.858;6.586;2023-02-28T11:51:06;4.70;99.90
14317;DHT22;7242;50.858;6.586;2023-02-28T12:07:26;5.10;99.90
14317;DHT22;7242;50.858;6.586;2023-02-28T12:10:35;5.10;99.90
14317;DHT22;7242;50.858;6.586;2023-02-28T12:13:52;5.00;99.90
14317;DHT22;7242;50.858;6.586;2023-02-28T12:17:22;5.10;99.90
14317;DHT22;7242;50.858;6.586;2023-02-28T12:20:53;5.00;99.90
14317;DHT22;7242;50.858;6.586;2023-02-28T12:27:19;5.10;99.90
14317;DHT22;7242;50.858;6.586;2023-02-28T12:30:25;5.10;99.90
14317;DHT22;7242;50.858;6.586;2023-02-28T12:33:33;5.20;99.90
14317;DHT22;7242;50.858;6.586;2023-02-28T12:36:35;5.30;99.90
14317;DHT22;7242;50.858;6.586;2023-02-28T12:39:44;5.40;99.90
14317;DHT22;7242;50.858;6.586;2023-02-28T12:42:51;5.50;99.90
14317;DHT22;7242;50.858;6.586;2023-02-28T12:45:59;5.60;99.90
14317;DHT22;7242;50.858;6.586;2023-02-28T12:49:06;5.70;99.90
14317;DHT22;7242;50.858;6.586;2023-02-28T12:52:10;5.70;99.90
14317;DHT22;7242;50.858;6.586;2023-02-28T12:55:46;5.60;99.90
14317;DHT22;7242;50.858;6.586;2023-02-28T12:59:01;5.50;99.90
14317;DHT22;7242;50.858;6.586;2023-02-28T13:11:49;5.40;99.90
14317;DHT22;7242;50.858;6.586;2023-02-28T13:18:05;5.30;99.90
14317;DHT22;7242;50.858;6.586;2023-02-28T13:21:08;5.40;99.90
14317;DHT22;7242;50.858;6.586;2023-02-28T13:27:19;5.40;99.90
14317;DHT22;7242;50.858;6.586;2023-02-28T13:40:33;5.60;99.90
14317;DHT22;7242;50.858;6.586;2023-02-28T13:44:16;5.70;99.90
14317;DHT22;7242;50.858;6.586;2023-02-28T13:47:22;5.70;99.90
14317;DHT22;7242;50.858;6.586;2023-02-28T13:50:37;5.80;99.90
14317;DHT22;7242;50.858;6.586;2023-02-28T13:53:57;5.70;99.90
14317;DHT22;7242;50.858;6.586;2023-02-28T14:06:53;5.80;99.90
14317;DHT22;7242;50.858;6.586;2023-02-28T14:10:02;5.90;99.90
14317;DHT22;7242;50.858;6.586;2023-02-28T14:19:46;5.90;99.90
14317;DHT22;7242;50.858;6.586;2023-02-28T14:32:35;5.80;99.90
14317;DHT22;7242;50.858;6.586;2023-02-28T14:39:15;5.90;99.90
14317;DHT22;7242;50.858;6.586;2023-02-28T14:42:29;5.90;99.90
14317;DHT22;7242;50.858;6.586;2023-02-28T14:45:32;5.80;99.90
14317;DHT22;7242;50.858;6.586;2023-02-28T14:48:35;5.80;99.90
14317;DHT22;7242;50.858;6.586;2023-02-28T14:51:36;5.90;99.90
14317;DHT22;7242;50.858;6.586;2023-02-28T14:54:38;5.90;99.90
14317;DHT22;7242;50.858;6.586;2023-02-28T14:57:51;6.00;99.90
14317;DHT22;7242;50.858;6.586;2023-02-28T15:00:55;6.00;99.90
14317;DHT22;7242;50.858;6.586;2023-02-28T15:04:01;5.90;99.90
14317;DHT22;7242;50.858;6.586;2023-02-28T15:07:12;5.90;99.90
14317;DHT22;7242;50.858;6.586;2023-02-28T15:10:25;6.00;99.90
14317;DHT22;7242;50.858;6.586;2023-02-28T15:13:47;6.00;99.90
14317;DHT22;7242;50.858;6.586;2023-02-28T15:16:55;6.00;99.90
14317;DHT22;7242;50.858;6.586;2023-02-28T15:19:58;6.10;99.90
14317;DHT22;7242;50.858;6.586;2023-02-28T15:26:00;6.10;99.90
14317;DHT22;7242;50.858;6.586;2023-02-28T15:29:05;6.10;99.90
14317;DHT22;7242;50.858;6.586;2023-02-28T15:32:07;6.10;99.90
14317;DHT22;7242;50.858;6.586;2023-02-28T15:35:19;6.10;99.90
14317;DHT22;7242;50.858;6.586;2023-02-28T15:38:25;6.20;99.90
14317;DHT22;7242;50.858;6.586;2023-02-28T15:41:35;6.20;99.90
14317;DHT22;7242;50.858;6.586;2023-02-28T15:53:59;6.10;99.90
14317;DHT22;7242;50.858;6.586;2023-02-28T15:57:07;6.20;99.90
14317;DHT22;7242;50.858;6.586;2023-02-28T16:00:16;5.90;99.90
14317;DHT22;7242;50.858;6.586;2023-02-28T16:03:42;6.10;99.90
14317;DHT22;7242;50.858;6.586;2023-02-28T16:06:45;6.10;99.90
14317;DHT22;7242;50.858;6.586;2023-02-28T16:09:46;6.00;99.90
14317;DHT22;7242;50.858;6.586;2023-02-28T16:12:48;5.90;99.90
14317;DHT22;7242;50.858;6.586;2023-02-28T16:15:49;6.00;99.90
14317;DHT22;7242;50.858;6.586;2023-02-28T16:18:52;6.00;99.90
14317;DHT22;7242;50.858;6.586;2023-02-28T16:21:53;6.00;99.90
14317;DHT22;7242;50.858;6.586;2023-02-28T16:24:53;5.80;99.90
14317;DHT22;7242;50.858;6.586;2023-02-28T16:27:54;6.00;99.90
14317;DHT22;7242;50.858;6.586;2023-02-28T16:31:00;6.00;99.90
14317;DHT22;7242;50.858;6.586;2023-02-28T16:34:04;5.80;99.90
14317;DHT22;7242;50.858;6.586;2023-02-28T16:37:13;5.90;99.90
14317;DHT22;7242;50.858;6.586;2023-02-28T16:40:16;5.90;99.90
14317;DHT22;7242;50.858;6.586;2023-02-28T16:43:19;5.90;99.90
14317;DHT22;7242;50.858;6.586;2023-02-28T16:46:21;5.90;99.90
14317;DHT22;7242;50.858;6.586;2023-02-28T16:49:22;5.70;99.90
14317;DHT22;7242;50.858;6.586;2023-02-28T16:55:25;5.80;99.90
14317;DHT22;7242;50.858;6.586;2023-02-28T17:01:28;5.70;99.90
14317;DHT22;7242;50.858;6.586;2023-02-28T17:07:30;5.50;99.90
14317;DHT22;7242;50.858;6.586;2023-02-28T17:10:30;5.30;99.90
14317;DHT22;7242;50.858;6.586;2023-02-28T17:16:36;5.20;99.90
14317;DHT22;7242;50.858;6.586;2023-02-28T17:22:43;5.20;99.90
14317;DHT22;7242;50.858;6.586;2023-02-28T17:25:44;5.10;99.90
14317;DHT22;7242;50.858;6.586;2023-02-28T17:28:54;5.00;99.90
14317;DHT22;7242;50.858;6.586;2023-02-28T17:38:03;4.80;99.90
14317;DHT22;7242;50.858;6.586;2023-02-28T17:41:04;4.80;99.90
14317;DHT22;7242;50.858;6.586;2023-02-28T17:47:05;4.60;99.90
14317;DHT22;7242;50.858;6.586;2023-02-28T17:50:10;4.60;99.90
14317;DHT22;7242;50.858;6.586;2023-02-28T17:53:11;4.50;99.90
14317;DHT22;7242;50.858;6.586;2023-02-28T17:56:15;4.30;99.90
14317;DHT22;7242;50.858;6.586;2023-02-28T18:05:18;4.30;99.90
14317;DHT22;7242;50.858;6.586;2023-02-28T18:08:18;4.20;99.90
14317;DHT22;7242;50.858;6.586;2023-02-28T18:11:21;4.20;99.90
14317;DHT22;7242;50.858;6.586;2023-02-28T18:14:25;4.10;99.90
14317;DHT22;7242;50.858;6.586;2023-02-28T18:20:26;4.00;99.90
14317;DHT22;7242;50.858;6.586;2023-02-28T18:32:32;3.80;99.90
14317;DHT22;7242;50.858;6.586;2023-02-28T18:35:33;3.70;99.90
14317;DHT22;7242;50.858;6.586;2023-02-28T18:41:35;3.70;99.90
14317;DHT22;7242;50.858;6.586;2023-02-28T18:44:36;3.60;99.90
14317;DHT22;7242;50.858;6.586;2023-02-28T18:47:37;3.60;99.90
14317;DHT22;7242;50.858;6.586;2023-02-28T18:53:40;3.50;99.90
14317;DHT22;7242;50.858;6.586;2023-02-28T18:56:41;3.50;99.90
14317;DHT22;7242;50.858;6.586;2023-02-28T19:02:43;3.40;99.90
14317;DHT22;7242;50.858;6.586;2023-02-28T19:14:47;3.30;99.90
14317;DHT22;7242;50.858;6.586;2023-02-28T19:23:51;3.20;99.90
14317;DHT22;7242;50.858;6.586;2023-02-28T19:32:55;3.10;99.90
14317;DHT22;7242;50.858;6.586;2023-02-28T19:35:59;3.10;99.90
14317;DHT22;7242;50.858;6.586;2023-02-28T19:39:00;3.00;99.90
14317;DHT22;7242;50.858;6.586;2023-02-28T19:42:01;3.00;99.90
14317;DHT22;7242;50.858;6.586;2023-02-28T19:45:03;3.00;99.90
14317;DHT22;7242;50.858;6.586;2023-02-28T19:51:09;3.00;99.90
14317;DHT22;7242;50.858;6.586;2023-02-28T20:00:14;2.90;99.90
14317;DHT22;7242;50.858;6.586;2023-02-28T20:03:15;2.90;99.90
14317;DHT22;7242;50.858;6.586;2023-02-28T20:09:19;2.80;99.90
14317;DHT22;7242;50.858;6.586;2023-02-28T20:24:27;2.80;99.90
14317;DHT22;7242;50.858;6.586;2023-02-28T20:30:28;2.80;99.90
14317;DHT22;7242;50.858;6.586;2023-02-28T20:42:32;2.70;99.90
14317;DHT22;7242;50.858;6.586;2023-02-28T20:48:35;2.70;99.90
14317;DHT22;7242;50.858;6.586;2023-02-28T21:03:44;2.60;99.90
14317;DHT22;7242;50.858;6.586;2023-02-28T21:06:45;2.60;99.90
14317;DHT22;7242;50.858;6.586;2023-02-28T21:12:49;2.50;99.90
14317;DHT22;7242;50.858;6.586;2023-02-28T21:15:49;2.50;99.90
14317;DHT22;7242;50.858;6.586;2023-02-28T21:18:50;2.50;99.90
14317;DHT22;7242;50.858;6.586;2023-02-28T21:21:53;2.50;99.90
14317;DHT22;7242;50.858;6.586;2023-02-28T21:31:05;2.40;99.90
14317;DHT22;7242;50.858;6.586;2023-02-28T21:34:07;2.40;99.90
14317;DHT22;7242;50.858;6.586;2023-02-28T21:37:09;2.40;99.90
14317;DHT22;7242;50.858;6.586;2023-02-28T21:40:11;2.40;99.90
14317;DHT22;7242;50.858;6.586;2023-02-28T21:46:16;2.30;99.90
14317;DHT22;7242;50.858;6.586;2023-02-28T21:49:17;2.10;99.90
14317;DHT22;7242;50.858;6.586;2023-02-28T21:52:17;2.30;99.90
14317;DHT22;7242;50.858;6.586;2023-02-28T21:55:21;2.20;99.90
14317;DHT22;7242;50.858;6.586;2023-02-28T21:58:21;2.20;99.90
14317;DHT22;7242;50.858;6.586;2023-02-28T22:04:23;2.20;99.90
14317;DHT22;7242;50.858;6.586;2023-02-28T22:07:24;2.20;99.90
14317;DHT22;7242;50.858;6.586;2023-02-28T22:13:25;2.10;99.90
14317;DHT22;7242;50.858;6.586;2023-02-28T22:16:28;2.10;99.90
14317;DHT22;7242;50.858;6.586;2023-02-28T22:25:36;2.00;99.90
14317;DHT22;7242;50.858;6.586;2023-02-28T22:28:36;2.00;99.90
14317;DHT22;7242;50.858;6.586;2023-02-28T22:34:38;2.00;99.90
14317;DHT22;7242;50.858;6.586;2023-02-28T22:37:39;2.00;99.90
14317;DHT22;7242;50.858;6.586;2023-02-28T22:43:42;1.90;99.90
14317;DHT22;7242;50.858;6.586;2023-02-28T22:46:43;1.90;99.90
14317;DHT22;7242;50.858;6.586;2023-02-28T22:52:45;1.80;99.90
14317;DHT22;7242;50.858;6.586;2023-02-28T22:55:53;1.80;99.90
14317;DHT22;7242;50.858;6.586;2023-02-28T22:58:56;1.80;99.90
14317;DHT22;7242;50.858;6.586;2023-02-28T23:01:57;1.90;99.90
14317;DHT22;7242;50.858;6.586;2023-02-28T23:07:59;1.80;99.90
14317;DHT22;7242;50.858;6.586;2023-02-28T23:11:00;1.80;99.90
14317;DHT22;7242;50.858;6.586;2023-02-28T23:14:01;1.80;99.90
14317;DHT22;7242;50.858;6.586;2023-02-28T23:20:03;1.80;99.90
14317;DHT22;7242;50.858;6.586;2023-02-28T23:23:04;1.80;99.90
14317;DHT22;7242;50.858;6.586;2023-02-28T23:26:06;1.80;99.90
14317;DHT22;7242;50.858;6.586;2023-02-28T23:29:07;1.80;99.90
14317;DHT22;7242;50.858;6.586;2023-02-28T23:32:08;1.80;99.90
14317;DHT22;7242;50.858;6.586;2023-02-28T23:38:28;1.70;99.90
14317;DHT22;7242;50.858;6.586;2023-02-28T23:44:31;1.60;99.90
14317;DHT22;7242;50.858;6.586;2023-02-28T23:50:32;1.60;99.90
14317;DHT22;7242;50.858;6.586;2023-02-28T23:53:38;1.60;99.90
14317;DHT22;7242;50.858;6.586;2023-02-28T23:56:39;1.60;99.90
14317;DHT22;7242;50.858;6.586;2023-02-28T23:59:39;1.50;99.90
